Omskiy-107 — UBWE3 — position and weather

sailwx.info

Track history (hours):
 
Tides and Currents Weather Stations Pressure Air Temp Water Temp Dewpoint Dewpoint Depression Visibility Wind Speed Wind Dir Waves Ship Positions

Omskiy-107

Last reported at 2016-Aug-15 11:34 UTC. Time now 2016-Aug-29 08:52 UTC.
Position N 45°31' E 036°46'.
Warning: this ship's position is 13 days out of date.

Length 108 m; draft 2.6 m.

Type: Pleasure craft. MMSI: 273343220.

Date/timePositionNaut miles runAvg speedWind from/ knotsBaromVisibWave heightAir tempDewpointWater temp
2016-Aug-15 11:34N 45°31' E 036°46'8 7.7
2016-Aug-15 10:34N 45°24' E 036°41'8 7.8
2016-Aug-15 09:33N 45°19' E 036°33'6 6.5
2016-Aug-15 08:33N 45°13' E 036°29'2 0.9
2016-Aug-15 06:12N 45°11' E 036°29'0 0.0
2016-Aug-15 04:33N 45°11' E 036°29'0 0.0
2016-Aug-15 03:33N 45°11' E 036°29'0 0.0
2016-Aug-15 02:21N 45°11' E 036°29'  
2016-Aug-12 04:33N 45°05' E 036°31'8 8.1
2016-Aug-12 03:33N 45°13' E 036°28'7 6.9
2016-Aug-12 02:34N 45°19' E 036°32'7 7.2
2016-Aug-12 01:34N 45°23' E 036°40'5 5.3
2016-Aug-12 00:33N 45°28' E 036°41'5 5.0
2016-Aug-11 23:34N 45°33' E 036°43'86 7.7
2016-Aug-11 12:21N 46°52' E 037°34'9 8.0
2016-Aug-11 11:16N 46°54' E 037°47'6 8.1
2016-Aug-11 10:31N 46°55' E 037°55'8 8.1
2016-Aug-11 09:33N 46°58' E 038°06'49 6.8
2016-Aug-11 02:17N 47°05' E 039°17'9 4.8
2016-Aug-11 00:28N 47°09' E 039°29'  
Track history (hours):
 
Tides and Currents Weather Stations Pressure Air Temp Water Temp Dewpoint Dewpoint Depression Visibility Wind Speed Wind Dir Waves Ship Positions

Omskiy-107

Last reported at 2016-Aug-15 11:34 UTC. Time now 2016-Aug-29 08:52 UTC.
Position N 45°31' E 036°46'.
Warning: this ship's position is 13 days out of date.

Length 108 m; draft 2.6 m.

Type: Pleasure craft. MMSI: 273343220.

Date/timePositionNaut miles runAvg speedWind from/ knotsBaromVisibWave heightAir tempDewpointWater temp
2016-Aug-15 11:34N 45°31' E 036°46'8 7.7
2016-Aug-15 10:34N 45°24' E 036°41'8 7.8
2016-Aug-15 09:33N 45°19' E 036°33'6 6.5
2016-Aug-15 08:33N 45°13' E 036°29'2 0.9
2016-Aug-15 06:12N 45°11' E 036°29'0 0.0
2016-Aug-15 04:33N 45°11' E 036°29'0 0.0
2016-Aug-15 03:33N 45°11' E 036°29'0 0.0
2016-Aug-15 02:21N 45°11' E 036°29'  
2016-Aug-12 04:33N 45°05' E 036°31'8 8.1
2016-Aug-12 03:33N 45°13' E 036°28'7 6.9
2016-Aug-12 02:34N 45°19' E 036°32'7 7.2
2016-Aug-12 01:34N 45°23' E 036°40'5 5.3
2016-Aug-12 00:33N 45°28' E 036°41'5 5.0
2016-Aug-11 23:34N 45°33' E 036°43'86 7.7
2016-Aug-11 12:21N 46°52' E 037°34'9 8.0
2016-Aug-11 11:16N 46°54' E 037°47'6 8.1
2016-Aug-11 10:31N 46°55' E 037°55'8 8.1
2016-Aug-11 09:33N 46°58' E 038°06'49 6.8
2016-Aug-11 02:17N 47°05' E 039°17'9 4.8
2016-Aug-11 00:28N 47°09' E 039°29'  

Dump ship's entire track history